In Rescue
 
Open Full Screen Window  High Contrast Mode
Wind Gusting 00 knots
08
April 19, 2021 8:14 PM EDT
Weather Information
Wind Direction
  320 °
Wind Speed
  08 kt (9 mph)
Wind Gust
  00 kt (0 mph)
Altimeter
29.87 in
Visibility
10 SM
Temperature
02° C
36° F
Dewpoint
-04° C
25° F
Humidity
65%
Sky Condition
Overcast @ 4,800 ft
Broken @ 4,100 ft
VFR

METAR KFKS 200014Z AUTO 32008KT 10SM BKN041 OVC048 02/M04 A2987 RMK AO2 T00231036

FAA Disclaimer: The data displayed is for advisory purposes only and is not to be used for flight planning or operations.